sensor_id;sensor_type;location;lat;lon;timestamp;P1;durP1;ratioP1;P2;durP2;ratioP2
38117;SDS011;23928;47.562;7.508;2022-10-16T00:01:23;2.67;;;2.47;;
38117;SDS011;23928;47.562;7.508;2022-10-16T00:03:50;2.97;;;2.27;;
38117;SDS011;23928;47.562;7.508;2022-10-16T00:06:16;5.47;;;2.60;;
38117;SDS011;23928;47.562;7.508;2022-10-16T00:08:43;3.27;;;2.80;;
38117;SDS011;23928;47.562;7.508;2022-10-16T00:11:11;5.27;;;2.57;;
38117;SDS011;23928;47.562;7.508;2022-10-16T00:13:40;6.87;;;2.50;;
38117;SDS011;23928;47.562;7.508;2022-10-16T00:16:06;4.30;;;2.60;;
38117;SDS011;23928;47.562;7.508;2022-10-16T00:18:33;2.50;;;2.30;;
38117;SDS011;23928;47.562;7.508;2022-10-16T00:21:03;5.47;;;2.43;;
38117;SDS011;23928;47.562;7.508;2022-10-16T00:23:29;3.10;;;2.47;;
38117;SDS011;23928;47.562;7.508;2022-10-16T00:25:56;5.27;;;2.90;;
38117;SDS011;23928;47.562;7.508;2022-10-16T00:28:23;2.63;;;1.93;;
38117;SDS011;23928;47.562;7.508;2022-10-16T00:30:49;4.17;;;2.50;;
38117;SDS011;23928;47.562;7.508;2022-10-16T00:33:14;4.67;;;2.17;;
38117;SDS011;23928;47.562;7.508;2022-10-16T00:35:40;4.17;;;2.53;;
38117;SDS011;23928;47.562;7.508;2022-10-16T00:38:08;4.87;;;2.50;;
38117;SDS011;23928;47.562;7.508;2022-10-16T00:40:37;3.33;;;2.40;;
38117;SDS011;23928;47.562;7.508;2022-10-16T00:43:09;6.63;;;2.50;;
38117;SDS011;23928;47.562;7.508;2022-10-16T00:45:58;2.13;;;2.03;;
38117;SDS011;23928;47.562;7.508;2022-10-16T00:48:25;4.60;;;2.27;;
38117;SDS011;23928;47.562;7.508;2022-10-16T00:50:50;10.43;;;2.93;;
38117;SDS011;23928;47.562;7.508;2022-10-16T00:53:17;7.73;;;2.83;;
38117;SDS011;23928;47.562;7.508;2022-10-16T00:55:42;4.87;;;2.43;;
38117;SDS011;23928;47.562;7.508;2022-10-16T00:58:08;6.07;;;2.80;;
38117;SDS011;23928;47.562;7.508;2022-10-16T01:00:34;2.53;;;2.33;;
38117;SDS011;23928;47.562;7.508;2022-10-16T01:03:00;5.43;;;2.53;;
38117;SDS011;23928;47.562;7.508;2022-10-16T01:05:30;5.67;;;2.47;;
38117;SDS011;23928;47.562;7.508;2022-10-16T01:08:24;2.97;;;2.30;;
38117;SDS011;23928;47.562;7.508;2022-10-16T01:11:23;2.30;;;2.10;;
38117;SDS011;23928;47.562;7.508;2022-10-16T01:14:27;8.53;;;2.60;;
38117;SDS011;23928;47.562;7.508;2022-10-16T01:17:06;2.43;;;2.20;;
38117;SDS011;23928;47.562;7.508;2022-10-16T01:22:19;10.23;;;3.03;;
38117;SDS011;23928;47.562;7.508;2022-10-16T01:24:51;3.53;;;2.40;;
38117;SDS011;23928;47.562;7.508;2022-10-16T01:27:28;2.60;;;2.33;;
38117;SDS011;23928;47.562;7.508;2022-10-16T01:30:07;6.17;;;2.53;;
38117;SDS011;23928;47.562;7.508;2022-10-16T01:33:01;4.17;;;1.97;;
38117;SDS011;23928;47.562;7.508;2022-10-16T01:35:37;5.50;;;2.60;;
38117;SDS011;23928;47.562;7.508;2022-10-16T01:38:07;4.20;;;2.33;;
38117;SDS011;23928;47.562;7.508;2022-10-16T01:40:42;4.07;;;2.50;;
38117;SDS011;23928;47.562;7.508;2022-10-16T01:43:16;4.20;;;1.93;;
38117;SDS011;23928;47.562;7.508;2022-10-16T01:45:45;5.23;;;2.50;;
38117;SDS011;23928;47.562;7.508;2022-10-16T01:48:13;4.23;;;2.57;;
38117;SDS011;23928;47.562;7.508;2022-10-16T01:50:43;5.97;;;2.50;;
38117;SDS011;23928;47.562;7.508;2022-10-16T01:53:10;3.67;;;2.27;;
38117;SDS011;23928;47.562;7.508;2022-10-16T01:55:40;5.27;;;2.57;;
38117;SDS011;23928;47.562;7.508;2022-10-16T01:58:10;5.83;;;2.13;;
38117;SDS011;23928;47.562;7.508;2022-10-16T02:00:39;3.70;;;2.40;;
38117;SDS011;23928;47.562;7.508;2022-10-16T02:03:08;2.77;;;2.07;;
38117;SDS011;23928;47.562;7.508;2022-10-16T02:05:41;5.07;;;3.03;;
38117;SDS011;23928;47.562;7.508;2022-10-16T02:08:12;8.30;;;2.83;;
38117;SDS011;23928;47.562;7.508;2022-10-16T02:10:38;7.37;;;2.67;;
38117;SDS011;23928;47.562;7.508;2022-10-16T02:13:14;5.17;;;2.23;;
38117;SDS011;23928;47.562;7.508;2022-10-16T02:15:47;6.83;;;2.50;;
38117;SDS011;23928;47.562;7.508;2022-10-16T02:18:12;4.57;;;2.70;;
38117;SDS011;23928;47.562;7.508;2022-10-16T02:20:43;2.93;;;2.70;;
38117;SDS011;23928;47.562;7.508;2022-10-16T02:23:26;5.00;;;2.70;;
38117;SDS011;23928;47.562;7.508;2022-10-16T02:26:04;4.17;;;2.80;;
38117;SDS011;23928;47.562;7.508;2022-10-16T02:28:42;5.30;;;2.87;;
38117;SDS011;23928;47.562;7.508;2022-10-16T02:31:11;6.43;;;2.87;;
38117;SDS011;23928;47.562;7.508;2022-10-16T02:33:41;4.03;;;2.50;;
38117;SDS011;23928;47.562;7.508;2022-10-16T02:36:08;14.00;;;2.73;;
38117;SDS011;23928;47.562;7.508;2022-10-16T02:38:35;2.83;;;2.20;;
38117;SDS011;23928;47.562;7.508;2022-10-16T02:41:02;11.93;;;2.73;;
38117;SDS011;23928;47.562;7.508;2022-10-16T02:43:29;8.23;;;2.50;;
38117;SDS011;23928;47.562;7.508;2022-10-16T02:45:54;5.30;;;2.57;;
38117;SDS011;23928;47.562;7.508;2022-10-16T02:48:20;12.17;;;2.70;;
38117;SDS011;23928;47.562;7.508;2022-10-16T02:50:46;4.50;;;2.57;;
38117;SDS011;23928;47.562;7.508;2022-10-16T02:53:11;7.00;;;2.33;;
38117;SDS011;23928;47.562;7.508;2022-10-16T02:55:37;5.67;;;2.77;;
38117;SDS011;23928;47.562;7.508;2022-10-16T02:58:02;8.30;;;2.60;;
38117;SDS011;23928;47.562;7.508;2022-10-16T03:00:28;6.10;;;2.87;;
38117;SDS011;23928;47.562;7.508;2022-10-16T03:02:54;5.00;;;2.50;;
38117;SDS011;23928;47.562;7.508;2022-10-16T03:05:19;9.40;;;2.93;;
38117;SDS011;23928;47.562;7.508;2022-10-16T03:07:45;3.47;;;2.43;;
38117;SDS011;23928;47.562;7.508;2022-10-16T03:10:10;3.87;;;2.67;;
38117;SDS011;23928;47.562;7.508;2022-10-16T03:12:36;5.57;;;2.13;;
38117;SDS011;23928;47.562;7.508;2022-10-16T03:15:02;4.97;;;3.03;;
38117;SDS011;23928;47.562;7.508;2022-10-16T03:17:28;7.93;;;2.57;;
38117;SDS011;23928;47.562;7.508;2022-10-16T03:19:54;6.83;;;2.90;;
38117;SDS011;23928;47.562;7.508;2022-10-16T03:22:19;6.83;;;2.73;;
38117;SDS011;23928;47.562;7.508;2022-10-16T03:24:45;5.63;;;2.80;;
38117;SDS011;23928;47.562;7.508;2022-10-16T03:27:11;3.63;;;2.67;;
38117;SDS011;23928;47.562;7.508;2022-10-16T03:29:36;5.27;;;2.50;;
38117;SDS011;23928;47.562;7.508;2022-10-16T03:32:02;4.17;;;2.50;;
38117;SDS011;23928;47.562;7.508;2022-10-16T03:34:27;3.43;;;2.30;;
38117;SDS011;23928;47.562;7.508;2022-10-16T03:36:53;4.57;;;2.57;;
38117;SDS011;23928;47.562;7.508;2022-10-16T03:39:19;6.07;;;2.43;;
38117;SDS011;23928;47.562;7.508;2022-10-16T03:41:45;4.77;;;2.87;;
38117;SDS011;23928;47.562;7.508;2022-10-16T03:44:11;6.30;;;2.30;;
38117;SDS011;23928;47.562;7.508;2022-10-16T03:46:37;5.47;;;2.47;;
38117;SDS011;23928;47.562;7.508;2022-10-16T03:49:02;6.07;;;2.47;;
38117;SDS011;23928;47.562;7.508;2022-10-16T03:51:28;2.43;;;2.10;;
38117;SDS011;23928;47.562;7.508;2022-10-16T03:53:53;4.00;;;2.70;;
38117;SDS011;23928;47.562;7.508;2022-10-16T03:56:19;4.33;;;2.60;;
38117;SDS011;23928;47.562;7.508;2022-10-16T03:58:45;3.77;;;2.33;;
38117;SDS011;23928;47.562;7.508;2022-10-16T04:01:10;5.30;;;2.70;;
38117;SDS011;23928;47.562;7.508;2022-10-16T04:03:36;2.73;;;2.40;;
38117;SDS011;23928;47.562;7.508;2022-10-16T04:06:01;5.67;;;2.50;;
38117;SDS011;23928;47.562;7.508;2022-10-16T04:08:27;2.97;;;2.33;;
38117;SDS011;23928;47.562;7.508;2022-10-16T04:10:52;6.53;;;2.27;;
38117;SDS011;23928;47.562;7.508;2022-10-16T04:13:18;3.73;;;2.60;;
38117;SDS011;23928;47.562;7.508;2022-10-16T04:15:44;5.87;;;2.70;;
38117;SDS011;23928;47.562;7.508;2022-10-16T04:18:10;4.40;;;2.67;;
38117;SDS011;23928;47.562;7.508;2022-10-16T04:20:36;4.67;;;2.30;;
38117;SDS011;23928;47.562;7.508;2022-10-16T04:23:02;3.90;;;2.63;;
38117;SDS011;23928;47.562;7.508;2022-10-16T04:25:27;4.20;;;2.93;;
38117;SDS011;23928;47.562;7.508;2022-10-16T04:27:53;7.53;;;2.70;;
38117;SDS011;23928;47.562;7.508;2022-10-16T04:30:19;4.17;;;2.57;;
38117;SDS011;23928;47.562;7.508;2022-10-16T04:32:49;6.87;;;2.50;;
38117;SDS011;23928;47.562;7.508;2022-10-16T04:35:18;5.20;;;2.33;;
38117;SDS011;23928;47.562;7.508;2022-10-16T04:37:44;3.87;;;2.60;;
38117;SDS011;23928;47.562;7.508;2022-10-16T04:40:10;4.83;;;2.60;;
38117;SDS011;23928;47.562;7.508;2022-10-16T04:42:36;4.97;;;2.57;;
38117;SDS011;23928;47.562;7.508;2022-10-16T04:45:03;3.90;;;2.30;;
38117;SDS011;23928;47.562;7.508;2022-10-16T04:47:29;4.70;;;2.80;;
38117;SDS011;23928;47.562;7.508;2022-10-16T04:49:55;2.77;;;2.30;;
38117;SDS011;23928;47.562;7.508;2022-10-16T04:52:21;3.10;;;2.27;;
38117;SDS011;23928;47.562;7.508;2022-10-16T04:54:49;2.47;;;2.23;;
38117;SDS011;23928;47.562;7.508;2022-10-16T04:57:15;6.10;;;3.27;;
38117;SDS011;23928;47.562;7.508;2022-10-16T04:59:41;4.10;;;2.50;;
38117;SDS011;23928;47.562;7.508;2022-10-16T05:02:07;3.20;;;2.33;;
38117;SDS011;23928;47.562;7.508;2022-10-16T05:04:32;2.87;;;2.53;;
38117;SDS011;23928;47.562;7.508;2022-10-16T05:06:58;3.93;;;2.67;;
38117;SDS011;23928;47.562;7.508;2022-10-16T05:09:23;4.27;;;2.77;;
38117;SDS011;23928;47.562;7.508;2022-10-16T05:11:49;10.70;;;3.20;;
38117;SDS011;23928;47.562;7.508;2022-10-16T05:14:15;4.13;;;2.80;;
38117;SDS011;23928;47.562;7.508;2022-10-16T05:16:40;5.20;;;2.70;;
38117;SDS011;23928;47.562;7.508;2022-10-16T05:19:06;4.27;;;2.67;;
38117;SDS011;23928;47.562;7.508;2022-10-16T05:21:31;3.47;;;2.97;;
38117;SDS011;23928;47.562;7.508;2022-10-16T05:23:57;3.57;;;2.73;;
38117;SDS011;23928;47.562;7.508;2022-10-16T05:26:22;3.47;;;2.43;;
38117;SDS011;23928;47.562;7.508;2022-10-16T05:28:49;3.97;;;2.43;;
38117;SDS011;23928;47.562;7.508;2022-10-16T05:31:15;5.53;;;2.63;;
38117;SDS011;23928;47.562;7.508;2022-10-16T05:33:40;3.27;;;2.50;;
38117;SDS011;23928;47.562;7.508;2022-10-16T05:36:07;6.73;;;2.83;;
38117;SDS011;23928;47.562;7.508;2022-10-16T05:38:34;5.83;;;2.40;;
38117;SDS011;23928;47.562;7.508;2022-10-16T05:41:00;7.63;;;2.83;;
38117;SDS011;23928;47.562;7.508;2022-10-16T05:43:27;3.73;;;2.60;;
38117;SDS011;23928;47.562;7.508;2022-10-16T05:45:57;3.30;;;2.70;;
38117;SDS011;23928;47.562;7.508;2022-10-16T05:48:23;5.10;;;2.57;;
38117;SDS011;23928;47.562;7.508;2022-10-16T05:50:56;2.40;;;2.00;;
38117;SDS011;23928;47.562;7.508;2022-10-16T05:53:22;3.67;;;2.50;;
38117;SDS011;23928;47.562;7.508;2022-10-16T05:55:53;3.57;;;2.27;;
38117;SDS011;23928;47.562;7.508;2022-10-16T05:58:20;12.17;;;2.60;;
38117;SDS011;23928;47.562;7.508;2022-10-16T06:01:20;4.87;;;2.47;;
38117;SDS011;23928;47.562;7.508;2022-10-16T06:03:40;4.33;;;2.30;;
38117;SDS011;23928;47.562;7.508;2022-10-16T06:08:34;5.83;;;3.70;;
38117;SDS011;23928;47.562;7.508;2022-10-16T06:11:01;4.40;;;2.30;;
38117;SDS011;23928;47.562;7.508;2022-10-16T06:13:27;2.40;;;2.20;;
38117;SDS011;23928;47.562;7.508;2022-10-16T06:15:53;2.97;;;2.40;;
38117;SDS011;23928;47.562;7.508;2022-10-16T06:18:21;4.73;;;2.33;;
38117;SDS011;23928;47.562;7.508;2022-10-16T06:20:47;3.63;;;2.40;;
38117;SDS011;23928;47.562;7.508;2022-10-16T06:23:12;4.23;;;2.40;;
38117;SDS011;23928;47.562;7.508;2022-10-16T06:25:38;4.93;;;2.37;;
38117;SDS011;23928;47.562;7.508;2022-10-16T06:28:03;5.93;;;2.60;;
38117;SDS011;23928;47.562;7.508;2022-10-16T06:30:29;2.40;;;2.10;;
38117;SDS011;23928;47.562;7.508;2022-10-16T06:32:55;5.70;;;2.47;;
38117;SDS011;23928;47.562;7.508;2022-10-16T06:35:20;4.33;;;2.13;;
38117;SDS011;23928;47.562;7.508;2022-10-16T06:37:46;3.70;;;2.67;;
38117;SDS011;23928;47.562;7.508;2022-10-16T06:40:11;5.23;;;2.10;;
38117;SDS011;23928;47.562;7.508;2022-10-16T06:42:39;5.23;;;2.50;;
38117;SDS011;23928;47.562;7.508;2022-10-16T07:00:33;15.90;;;12.70;;
38117;SDS011;23928;47.562;7.508;2022-10-16T07:02:58;7.20;;;5.87;;
38117;SDS011;23928;47.562;7.508;2022-10-16T07:05:24;7.93;;;6.63;;
38117;SDS011;23928;47.562;7.508;2022-10-16T07:07:49;11.07;;;6.83;;
38117;SDS011;23928;47.562;7.508;2022-10-16T07:10:15;10.30;;;5.40;;
38117;SDS011;23928;47.562;7.508;2022-10-16T07:12:43;6.27;;;3.40;;
38117;SDS011;23928;47.562;7.508;2022-10-16T07:15:10;6.10;;;3.10;;
38117;SDS011;23928;47.562;7.508;2022-10-16T07:17:35;6.50;;;3.03;;
38117;SDS011;23928;47.562;7.508;2022-10-16T07:20:01;3.47;;;2.50;;
38117;SDS011;23928;47.562;7.508;2022-10-16T07:22:27;4.27;;;3.30;;
38117;SDS011;23928;47.562;7.508;2022-10-16T07:24:53;6.57;;;4.23;;
38117;SDS011;23928;47.562;7.508;2022-10-16T07:32:26;6.60;;;4.37;;
38117;SDS011;23928;47.562;7.508;2022-10-16T07:37:20;8.67;;;4.67;;
38117;SDS011;23928;47.562;7.508;2022-10-16T07:39:46;7.23;;;2.90;;
38117;SDS011;23928;47.562;7.508;2022-10-16T07:44:44;7.40;;;3.37;;
38117;SDS011;23928;47.562;7.508;2022-10-16T07:47:10;6.53;;;2.63;;
38117;SDS011;23928;47.562;7.508;2022-10-16T07:49:36;3.70;;;3.03;;
38117;SDS011;23928;47.562;7.508;2022-10-16T07:52:01;6.37;;;2.30;;
38117;SDS011;23928;47.562;7.508;2022-10-16T07:54:27;12.77;;;5.03;;
38117;SDS011;23928;47.562;7.508;2022-10-16T07:56:53;6.53;;;4.07;;
38117;SDS011;23928;47.562;7.508;2022-10-16T07:59:18;4.90;;;2.87;;
38117;SDS011;23928;47.562;7.508;2022-10-16T08:01:44;7.73;;;3.87;;
38117;SDS011;23928;47.562;7.508;2022-10-16T08:04:10;6.43;;;2.90;;
38117;SDS011;23928;47.562;7.508;2022-10-16T08:06:36;6.13;;;3.10;;
38117;SDS011;23928;47.562;7.508;2022-10-16T08:09:03;7.80;;;4.13;;
38117;SDS011;23928;47.562;7.508;2022-10-16T08:11:29;3.90;;;3.13;;
38117;SDS011;23928;47.562;7.508;2022-10-16T08:13:54;4.30;;;3.23;;
38117;SDS011;23928;47.562;7.508;2022-10-16T08:16:20;8.73;;;5.30;;
38117;SDS011;23928;47.562;7.508;2022-10-16T08:18:46;4.70;;;3.17;;
38117;SDS011;23928;47.562;7.508;2022-10-16T08:21:13;8.97;;;4.97;;
38117;SDS011;23928;47.562;7.508;2022-10-16T08:23:41;9.40;;;4.53;;
38117;SDS011;23928;47.562;7.508;2022-10-16T08:26:07;4.13;;;3.40;;
38117;SDS011;23928;47.562;7.508;2022-10-16T08:28:33;14.33;;;6.60;;
38117;SDS011;23928;47.562;7.508;2022-10-16T08:31:13;14.10;;;6.70;;
38117;SDS011;23928;47.562;7.508;2022-10-16T08:33:40;5.83;;;3.67;;
38117;SDS011;23928;47.562;7.508;2022-10-16T08:36:09;10.43;;;4.83;;
38117;SDS011;23928;47.562;7.508;2022-10-16T08:38:35;6.60;;;3.10;;
38117;SDS011;23928;47.562;7.508;2022-10-16T08:41:53;5.37;;;2.47;;
38117;SDS011;23928;47.562;7.508;2022-10-16T08:44:18;4.40;;;3.03;;
38117;SDS011;23928;47.562;7.508;2022-10-16T08:49:40;5.40;;;2.30;;
38117;SDS011;23928;47.562;7.508;2022-10-16T08:52:11;2.60;;;2.00;;
38117;SDS011;23928;47.562;7.508;2022-10-16T08:54:41;3.10;;;2.13;;
38117;SDS011;23928;47.562;7.508;2022-10-16T08:57:13;4.50;;;1.93;;
38117;SDS011;23928;47.562;7.508;2022-10-16T08:59:45;4.07;;;2.17;;
38117;SDS011;23928;47.562;7.508;2022-10-16T09:02:24;5.10;;;2.37;;
38117;SDS011;23928;47.562;7.508;2022-10-16T09:23:41;3.60;;;2.00;;
38117;SDS011;23928;47.562;7.508;2022-10-16T09:26:11;3.27;;;2.30;;
38117;SDS011;23928;47.562;7.508;2022-10-16T09:28:39;2.23;;;2.00;;
38117;SDS011;23928;47.562;7.508;2022-10-16T09:31:05;2.90;;;1.90;;
38117;SDS011;23928;47.562;7.508;2022-10-16T09:33:35;2.70;;;1.73;;
38117;SDS011;23928;47.562;7.508;2022-10-16T09:36:03;2.00;;;1.80;;
38117;SDS011;23928;47.562;7.508;2022-10-16T09:38:31;4.23;;;2.07;;
38117;SDS011;23928;47.562;7.508;2022-10-16T09:40:59;5.50;;;1.73;;
38117;SDS011;23928;47.562;7.508;2022-10-16T09:43:39;2.40;;;2.10;;
38117;SDS011;23928;47.562;7.508;2022-10-16T09:49:00;8.80;;;2.13;;
38117;SDS011;23928;47.562;7.508;2022-10-16T09:51:31;1.83;;;1.63;;
38117;SDS011;23928;47.562;7.508;2022-10-16T09:54:01;6.87;;;2.10;;
38117;SDS011;23928;47.562;7.508;2022-10-16T09:56:28;4.03;;;2.70;;
38117;SDS011;23928;47.562;7.508;2022-10-16T09:58:58;3.27;;;1.80;;
38117;SDS011;23928;47.562;7.508;2022-10-16T10:01:35;2.73;;;2.13;;
38117;SDS011;23928;47.562;7.508;2022-10-16T10:04:05;3.17;;;1.90;;
38117;SDS011;23928;47.562;7.508;2022-10-16T10:06:36;4.33;;;2.07;;
38117;SDS011;23928;47.562;7.508;2022-10-16T10:09:16;2.43;;;2.00;;
38117;SDS011;23928;47.562;7.508;2022-10-16T10:11:48;3.20;;;1.97;;
38117;SDS011;23928;47.562;7.508;2022-10-16T10:17:13;2.87;;;1.90;;
38117;SDS011;23928;47.562;7.508;2022-10-16T10:22:26;4.07;;;1.60;;
38117;SDS011;23928;47.562;7.508;2022-10-16T10:24:55;4.27;;;1.70;;
38117;SDS011;23928;47.562;7.508;2022-10-16T10:27:20;3.53;;;2.10;;
38117;SDS011;23928;47.562;7.508;2022-10-16T10:36:01;1.83;;;1.73;;
38117;SDS011;23928;47.562;7.508;2022-10-16T10:41:02;3.97;;;1.70;;
38117;SDS011;23928;47.562;7.508;2022-10-16T10:43:34;3.37;;;1.47;;
38117;SDS011;23928;47.562;7.508;2022-10-16T10:46:05;1.70;;;1.50;;
38117;SDS011;23928;47.562;7.508;2022-10-16T10:51:49;1.80;;;1.50;;
38117;SDS011;23928;47.562;7.508;2022-10-16T10:54:20;4.30;;;1.60;;
38117;SDS011;23928;47.562;7.508;2022-10-16T10:56:57;5.93;;;2.00;;
38117;SDS011;23928;47.562;7.508;2022-10-16T10:59:39;3.17;;;1.57;;
38117;SDS011;23928;47.562;7.508;2022-10-16T11:02:29;2.67;;;1.67;;
38117;SDS011;23928;47.562;7.508;2022-10-16T11:05:21;2.93;;;1.73;;
38117;SDS011;23928;47.562;7.508;2022-10-16T11:08:08;1.70;;;1.60;;
38117;SDS011;23928;47.562;7.508;2022-10-16T11:10:45;2.53;;;1.60;;
38117;SDS011;23928;47.562;7.508;2022-10-16T11:15:58;2.90;;;1.53;;
38117;SDS011;23928;47.562;7.508;2022-10-16T11:18:33;2.13;;;1.50;;
38117;SDS011;23928;47.562;7.508;2022-10-16T11:21:17;2.60;;;1.33;;
38117;SDS011;23928;47.562;7.508;2022-10-16T11:23:51;3.63;;;1.53;;
38117;SDS011;23928;47.562;7.508;2022-10-16T11:26:27;3.10;;;1.63;;
38117;SDS011;23928;47.562;7.508;2022-10-16T11:28:57;3.33;;;1.67;;
38117;SDS011;23928;47.562;7.508;2022-10-16T11:31:38;4.07;;;1.47;;
38117;SDS011;23928;47.562;7.508;2022-10-16T11:34:29;3.23;;;1.50;;
38117;SDS011;23928;47.562;7.508;2022-10-16T11:40:16;1.67;;;1.57;;
38117;SDS011;23928;47.562;7.508;2022-10-16T11:43:22;2.57;;;1.70;;
38117;SDS011;23928;47.562;7.508;2022-10-16T11:45:50;5.23;;;1.73;;
38117;SDS011;23928;47.562;7.508;2022-10-16T11:56:41;7.10;;;1.57;;
38117;SDS011;23928;47.562;7.508;2022-10-16T11:59:17;2.07;;;1.70;;
38117;SDS011;23928;47.562;7.508;2022-10-16T12:02:20;2.23;;;1.73;;
38117;SDS011;23928;47.562;7.508;2022-10-16T12:08:06;4.83;;;1.70;;
38117;SDS011;23928;47.562;7.508;2022-10-16T12:10:35;2.33;;;1.67;;
38117;SDS011;23928;47.562;7.508;2022-10-16T12:13:04;2.13;;;1.67;;
38117;SDS011;23928;47.562;7.508;2022-10-16T12:15:31;1.60;;;1.50;;
38117;SDS011;23928;47.562;7.508;2022-10-16T12:17:58;4.33;;;1.83;;
38117;SDS011;23928;47.562;7.508;2022-10-16T12:20:25;1.70;;;1.60;;
38117;SDS011;23928;47.562;7.508;2022-10-16T12:22:57;3.43;;;1.80;;
38117;SDS011;23928;47.562;7.508;2022-10-16T12:25:31;4.07;;;1.80;;
38117;SDS011;23928;47.562;7.508;2022-10-16T12:28:00;3.27;;;1.67;;
38117;SDS011;23928;47.562;7.508;2022-10-16T12:30:42;7.23;;;1.60;;
38117;SDS011;23928;47.562;7.508;2022-10-16T12:33:23;2.53;;;1.60;;
38117;SDS011;23928;47.562;7.508;2022-10-16T12:35:52;4.67;;;1.50;;
38117;SDS011;23928;47.562;7.508;2022-10-16T12:38:19;4.90;;;1.70;;
38117;SDS011;23928;47.562;7.508;2022-10-16T12:40:59;8.77;;;1.90;;
38117;SDS011;23928;47.562;7.508;2022-10-16T12:48:40;4.20;;;1.60;;
38117;SDS011;23928;47.562;7.508;2022-10-16T12:51:11;2.47;;;1.37;;
38117;SDS011;23928;47.562;7.508;2022-10-16T12:54:11;3.87;;;1.37;;
38117;SDS011;23928;47.562;7.508;2022-10-16T12:59:53;3.53;;;1.50;;
38117;SDS011;23928;47.562;7.508;2022-10-16T13:02:50;8.40;;;1.70;;
38117;SDS011;23928;47.562;7.508;2022-10-16T13:11:09;3.57;;;1.40;;
38117;SDS011;23928;47.562;7.508;2022-10-16T13:19:30;3.20;;;1.43;;
38117;SDS011;23928;47.562;7.508;2022-10-16T13:25:14;1.67;;;1.37;;
38117;SDS011;23928;47.562;7.508;2022-10-16T13:28:02;2.23;;;1.33;;
38117;SDS011;23928;47.562;7.508;2022-10-16T13:31:15;2.27;;;1.37;;
38117;SDS011;23928;47.562;7.508;2022-10-16T13:33:35;2.30;;;1.50;;
38117;SDS011;23928;47.562;7.508;2022-10-16T13:36:03;3.07;;;1.37;;
38117;SDS011;23928;47.562;7.508;2022-10-16T13:38:30;3.00;;;1.37;;
38117;SDS011;23928;47.562;7.508;2022-10-16T13:40:58;1.50;;;1.40;;
38117;SDS011;23928;47.562;7.508;2022-10-16T13:46:25;3.07;;;1.10;;
38117;SDS011;23928;47.562;7.508;2022-10-16T13:48:57;2.03;;;1.30;;
38117;SDS011;23928;47.562;7.508;2022-10-16T13:51:24;1.50;;;1.27;;
38117;SDS011;23928;47.562;7.508;2022-10-16T13:53:51;1.80;;;1.20;;
38117;SDS011;23928;47.562;7.508;2022-10-16T13:56:18;1.53;;;1.40;;
38117;SDS011;23928;47.562;7.508;2022-10-16T13:58:45;2.47;;;1.30;;
38117;SDS011;23928;47.562;7.508;2022-10-16T14:01:18;3.93;;;1.50;;
38117;SDS011;23928;47.562;7.508;2022-10-16T14:03:53;2.53;;;1.70;;
38117;SDS011;23928;47.562;7.508;2022-10-16T14:06:27;2.20;;;1.47;;
38117;SDS011;23928;47.562;7.508;2022-10-16T14:09:26;3.60;;;1.20;;
38117;SDS011;23928;47.562;7.508;2022-10-16T14:11:51;1.10;;;1.10;;
38117;SDS011;23928;47.562;7.508;2022-10-16T14:14:19;2.00;;;1.37;;
38117;SDS011;23928;47.562;7.508;2022-10-16T14:16:45;2.63;;;1.40;;
38117;SDS011;23928;47.562;7.508;2022-10-16T14:19:24;3.20;;;1.50;;
38117;SDS011;23928;47.562;7.508;2022-10-16T14:21:52;3.17;;;1.37;;
38117;SDS011;23928;47.562;7.508;2022-10-16T14:24:31;1.73;;;1.37;;
38117;SDS011;23928;47.562;7.508;2022-10-16T14:26:59;1.43;;;1.30;;
38117;SDS011;23928;47.562;7.508;2022-10-16T14:29:26;1.27;;;1.17;;
38117;SDS011;23928;47.562;7.508;2022-10-16T14:34:29;1.43;;;1.30;;
38117;SDS011;23928;47.562;7.508;2022-10-16T14:36:58;2.50;;;1.20;;
38117;SDS011;23928;47.562;7.508;2022-10-16T14:39:39;2.50;;;1.37;;
38117;SDS011;23928;47.562;7.508;2022-10-16T14:42:11;3.33;;;1.57;;
38117;SDS011;23928;47.562;7.508;2022-10-16T14:44:41;3.70;;;1.20;;
38117;SDS011;23928;47.562;7.508;2022-10-16T14:47:07;2.40;;;1.60;;
38117;SDS011;23928;47.562;7.508;2022-10-16T14:49:37;3.23;;;1.40;;
38117;SDS011;23928;47.562;7.508;2022-10-16T14:52:05;2.43;;;1.10;;
38117;SDS011;23928;47.562;7.508;2022-10-16T14:54:35;2.60;;;1.00;;
38117;SDS011;23928;47.562;7.508;2022-10-16T14:57:00;4.47;;;1.30;;
38117;SDS011;23928;47.562;7.508;2022-10-16T14:59:34;1.20;;;1.10;;
38117;SDS011;23928;47.562;7.508;2022-10-16T15:02:35;4.27;;;1.30;;
38117;SDS011;23928;47.562;7.508;2022-10-16T15:05:12;4.90;;;1.40;;
38117;SDS011;23928;47.562;7.508;2022-10-16T15:07:49;1.97;;;1.10;;
38117;SDS011;23928;47.562;7.508;2022-10-16T15:10:16;1.40;;;1.30;;
38117;SDS011;23928;47.562;7.508;2022-10-16T15:12:44;2.07;;;1.30;;
38117;SDS011;23928;47.562;7.508;2022-10-16T15:15:43;2.53;;;1.40;;
38117;SDS011;23928;47.562;7.508;2022-10-16T15:18:03;2.87;;;1.20;;
38117;SDS011;23928;47.562;7.508;2022-10-16T15:20:33;2.57;;;1.17;;
38117;SDS011;23928;47.562;7.508;2022-10-16T15:23:01;2.23;;;1.10;;
38117;SDS011;23928;47.562;7.508;2022-10-16T15:25:33;3.17;;;1.33;;
38117;SDS011;23928;47.562;7.508;2022-10-16T15:28:06;1.83;;;1.60;;
38117;SDS011;23928;47.562;7.508;2022-10-16T15:30:33;2.80;;;1.53;;
38117;SDS011;23928;47.562;7.508;2022-10-16T15:32:59;3.83;;;1.50;;
38117;SDS011;23928;47.562;7.508;2022-10-16T15:35:25;3.00;;;1.10;;
38117;SDS011;23928;47.562;7.508;2022-10-16T15:37:51;4.17;;;1.30;;
38117;SDS011;23928;47.562;7.508;2022-10-16T15:40:17;1.40;;;1.30;;
38117;SDS011;23928;47.562;7.508;2022-10-16T15:42:44;7.47;;;1.47;;
38117;SDS011;23928;47.562;7.508;2022-10-16T15:45:10;4.37;;;1.10;;
38117;SDS011;23928;47.562;7.508;2022-10-16T15:47:37;4.33;;;1.40;;
38117;SDS011;23928;47.562;7.508;2022-10-16T15:50:03;1.40;;;1.30;;
38117;SDS011;23928;47.562;7.508;2022-10-16T15:52:29;4.00;;;1.53;;
38117;SDS011;23928;47.562;7.508;2022-10-16T15:54:56;1.83;;;1.30;;
38117;SDS011;23928;47.562;7.508;2022-10-16T15:57:22;3.57;;;1.10;;
38117;SDS011;23928;47.562;7.508;2022-10-16T15:59:48;2.70;;;1.23;;
38117;SDS011;23928;47.562;7.508;2022-10-16T16:02:14;4.37;;;0.93;;
38117;SDS011;23928;47.562;7.508;2022-10-16T16:04:40;4.60;;;1.50;;
38117;SDS011;23928;47.562;7.508;2022-10-16T16:07:06;5.03;;;1.40;;
38117;SDS011;23928;47.562;7.508;2022-10-16T16:09:34;2.83;;;1.27;;
38117;SDS011;23928;47.562;7.508;2022-10-16T16:12:00;6.07;;;1.63;;
38117;SDS011;23928;47.562;7.508;2022-10-16T16:14:26;4.93;;;1.53;;
38117;SDS011;23928;47.562;7.508;2022-10-16T16:16:56;3.87;;;1.50;;
38117;SDS011;23928;47.562;7.508;2022-10-16T16:19:23;2.17;;;1.30;;
38117;SDS011;23928;47.562;7.508;2022-10-16T16:21:49;5.20;;;1.70;;
38117;SDS011;23928;47.562;7.508;2022-10-16T16:24:15;1.70;;;1.60;;
38117;SDS011;23928;47.562;7.508;2022-10-16T16:26:41;1.40;;;1.30;;
38117;SDS011;23928;47.562;7.508;2022-10-16T16:29:11;7.67;;;1.60;;
38117;SDS011;23928;47.562;7.508;2022-10-16T16:31:38;5.23;;;1.23;;
38117;SDS011;23928;47.562;7.508;2022-10-16T16:34:05;5.53;;;1.67;;
38117;SDS011;23928;47.562;7.508;2022-10-16T16:36:30;4.80;;;1.83;;
38117;SDS011;23928;47.562;7.508;2022-10-16T16:38:57;4.20;;;1.67;;
38117;SDS011;23928;47.562;7.508;2022-10-16T16:41:24;2.23;;;1.63;;
38117;SDS011;23928;47.562;7.508;2022-10-16T16:43:51;6.40;;;1.60;;
38117;SDS011;23928;47.562;7.508;2022-10-16T16:46:17;2.07;;;1.10;;
38117;SDS011;23928;47.562;7.508;2022-10-16T16:48:44;3.30;;;1.77;;
38117;SDS011;23928;47.562;7.508;2022-10-16T16:51:11;2.90;;;1.63;;
38117;SDS011;23928;47.562;7.508;2022-10-16T16:53:46;3.63;;;1.90;;
38117;SDS011;23928;47.562;7.508;2022-10-16T16:56:13;2.67;;;1.60;;
38117;SDS011;23928;47.562;7.508;2022-10-16T16:58:39;1.53;;;1.37;;
38117;SDS011;23928;47.562;7.508;2022-10-16T17:01:05;2.60;;;1.37;;
38117;SDS011;23928;47.562;7.508;2022-10-16T17:03:34;5.67;;;1.80;;